AFL1485 UNKL-UUEE
Flight info
| Callsign | AFL1485 |
|---|---|
| Flight time | N/A |
| Altitude | 38000 |
| Route | APRUS2F APRUS B800 ADONI R372 NH N992 KUMEP T796 AGNOK/K0763F280 M864 KERUN P164 KAMZA/K0832F380 P164 IDMOR M864 EKSER T612 KOKAD L158 DIMGI DIMGI3F |
| Aircraft | A20N/M-SDE2E3FGHIRWXY/LB1 |
Departure
| Time | 2026-05-06 09:00 |
|---|---|
| Airport | Krasnoyarsk International Airport (UNKL) |
Arrival
| Time | N/A |
|---|---|
| Airport | Sheremetyevo International Airport (UUEE) |
| Time | Latitude | Longitude | Altitude | Speed | Heading |
|---|---|---|---|---|---|
| 2026-05-06 08:38 | 56.17918 | 92.48612 | 954 ft | 0 kts | 21° |
| 2026-05-06 08:47 | 56.17917 | 92.48611 | 954 ft | 2 kts | 21° |
| 2026-05-06 08:47 | 56.17901 | 92.48600 | 950 ft | 2 kts | 20° |
| 2026-05-06 08:48 | 56.17886 | 92.48591 | 953 ft | 2 kts | 15° |
| 2026-05-06 08:48 | 56.17870 | 92.48586 | 952 ft | 2 kts | 356° |
| 2026-05-06 08:48 | 56.17854 | 92.48594 | 950 ft | 2 kts | 335° |
| 2026-05-06 08:48 | 56.17842 | 92.48612 | 954 ft | 2 kts | 298° |
| 2026-05-06 08:49 | 56.17838 | 92.48624 | 950 ft | 0 kts | 291° |
| 2026-05-06 08:51 | 56.17848 | 92.48580 | 950 ft | 6 kts | 291° |
| 2026-05-06 08:51 | 56.17855 | 92.48511 | 951 ft | 2 kts | 251° |
| 2026-05-06 08:51 | 56.17809 | 92.48438 | 952 ft | 11 kts | 202° |
| 2026-05-06 08:51 | 56.17749 | 92.48410 | 952 ft | 5 kts | 162° |
| 2026-05-06 08:52 | 56.17727 | 92.48439 | 954 ft | 5 kts | 126° |
| 2026-05-06 08:52 | 56.17711 | 92.48519 | 953 ft | 7 kts | 110° |
| 2026-05-06 08:52 | 56.17691 | 92.48603 | 954 ft | 11 kts | 115° |
| 2026-05-06 08:52 | 56.17654 | 92.48746 | 951 ft | 13 kts | 114° |
| 2026-05-06 08:53 | 56.17621 | 92.48889 | 953 ft | 12 kts | 113° |
| 2026-05-06 08:53 | 56.17587 | 92.49031 | 950 ft | 12 kts | 113° |
| 2026-05-06 08:53 | 56.17554 | 92.49171 | 952 ft | 12 kts | 113° |
| 2026-05-06 08:53 | 56.17525 | 92.49308 | 953 ft | 9 kts | 103° |
| 2026-05-06 08:54 | 56.17504 | 92.49395 | 953 ft | 8 kts | 115° |
| 2026-05-06 08:54 | 56.17482 | 92.49482 | 952 ft | 8 kts | 115° |
| 2026-05-06 08:54 | 56.17455 | 92.49587 | 953 ft | 13 kts | 115° |
| 2026-05-06 08:54 | 56.17415 | 92.49740 | 952 ft | 13 kts | 115° |
| 2026-05-06 08:55 | 56.17379 | 92.49895 | 953 ft | 13 kts | 105° |
| 2026-05-06 08:55 | 56.17340 | 92.50057 | 952 ft | 19 kts | 114° |
| 2026-05-06 08:55 | 56.17288 | 92.50273 | 953 ft | 19 kts | 113° |
| 2026-05-06 08:55 | 56.17237 | 92.50490 | 952 ft | 19 kts | 112° |
| 2026-05-06 08:56 | 56.17188 | 92.50700 | 954 ft | 18 kts | 112° |
| 2026-05-06 08:56 | 56.17139 | 92.50910 | 952 ft | 18 kts | 112° |
| 2026-05-06 08:56 | 56.17091 | 92.51117 | 953 ft | 18 kts | 112° |
| 2026-05-06 08:56 | 56.17038 | 92.51326 | 953 ft | 21 kts | 115° |
| 2026-05-06 08:57 | 56.16989 | 92.51545 | 953 ft | 16 kts | 119° |
| 2026-05-06 08:57 | 56.16943 | 92.51723 | 952 ft | 15 kts | 111° |
| 2026-05-06 08:57 | 56.16903 | 92.51897 | 953 ft | 15 kts | 117° |
| 2026-05-06 08:57 | 56.16850 | 92.51962 | 953 ft | 8 kts | 160° |
| 2026-05-06 08:58 | 56.16796 | 92.51998 | 952 ft | 10 kts | 158° |
| 2026-05-06 08:58 | 56.16713 | 92.52048 | 952 ft | 9 kts | 181° |
| 2026-05-06 08:58 | 56.16670 | 92.52008 | 954 ft | 5 kts | 223° |
| 2026-05-06 08:58 | 56.16665 | 92.51953 | 955 ft | 8 kts | 277° |
| 2026-05-06 08:59 | 56.16673 | 92.51919 | 954 ft | 0 kts | 292° |
| 2026-05-06 08:59 | 56.16691 | 92.51843 | 955 ft | 28 kts | 293° |
| 2026-05-06 08:59 | 56.16853 | 92.51162 | 953 ft | 89 kts | 294° |
| 2026-05-06 08:59 | 56.17182 | 92.49781 | 953 ft | 151 kts | 292° |
| 2026-05-06 09:00 | 56.17643 | 92.47792 | 1077 ft | 183 kts | 293° |
| 2026-05-06 09:00 | 56.18178 | 92.45724 | 1576 ft | 187 kts | 292° |
| 2026-05-06 09:00 | 56.18802 | 92.43608 | 2081 ft | 195 kts | 295° |
| 2026-05-06 09:00 | 56.19458 | 92.41450 | 2553 ft | 201 kts | 291° |
| 2026-05-06 09:01 | 56.19989 | 92.39036 | 2978 ft | 215 kts | 281° |
| 2026-05-06 09:01 | 56.20374 | 92.36296 | 3404 ft | 236 kts | 284° |
| 2026-05-06 09:01 | 56.20971 | 92.33458 | 4162 ft | 248 kts | 290° |
| 2026-05-06 09:01 | 56.21525 | 92.30518 | 5122 ft | 250 kts | 279° |
| 2026-05-06 09:02 | 56.21505 | 92.27402 | 6032 ft | 252 kts | 257° |
| 2026-05-06 09:02 | 56.20982 | 92.24406 | 6901 ft | 256 kts | 250° |
| 2026-05-06 09:02 | 56.20326 | 92.21401 | 7752 ft | 259 kts | 250° |
| 2026-05-06 09:02 | 56.19647 | 92.18369 | 8616 ft | 263 kts | 250° |
| 2026-05-06 09:03 | 56.18958 | 92.15280 | 9467 ft | 268 kts | 250° |
| 2026-05-06 09:03 | 56.18273 | 92.12188 | 10263 ft | 273 kts | 250° |
| 2026-05-06 09:03 | 56.17549 | 92.08897 | 10678 ft | 293 kts | 250° |
| 2026-05-06 09:03 | 56.16773 | 92.05361 | 11011 ft | 314 kts | 251° |
| 2026-05-06 09:04 | 56.15958 | 92.01649 | 11434 ft | 329 kts | 251° |
| 2026-05-06 09:04 | 56.15104 | 91.97778 | 12130 ft | 335 kts | 251° |
| 2026-05-06 09:04 | 56.14238 | 91.93861 | 12959 ft | 338 kts | 251° |
| 2026-05-06 09:04 | 56.13374 | 91.89961 | 13815 ft | 341 kts | 251° |
| 2026-05-06 09:05 | 56.12492 | 91.85978 | 14522 ft | 344 kts | 251° |
| 2026-05-06 09:05 | 56.11601 | 91.81961 | 15202 ft | 348 kts | 251° |
| 2026-05-06 09:05 | 56.10706 | 91.77938 | 15920 ft | 351 kts | 251° |
| 2026-05-06 09:05 | 56.09790 | 91.73828 | 16646 ft | 354 kts | 251° |
| 2026-05-06 09:06 | 56.08876 | 91.69731 | 17321 ft | 358 kts | 251° |
| 2026-05-06 09:06 | 56.07945 | 91.65569 | 18053 ft | 360 kts | 251° |
| 2026-05-06 09:06 | 56.07019 | 91.61434 | 18645 ft | 363 kts | 251° |
| 2026-05-06 09:06 | 56.06379 | 91.58581 | 19026 ft | 365 kts | 251° |
| 2026-05-06 09:07 | 56.05120 | 91.52986 | 19774 ft | 368 kts | 251° |
| 2026-05-06 09:07 | 56.04483 | 91.50159 | 20157 ft | 369 kts | 251° |
| 2026-05-06 09:07 | 56.03196 | 91.44456 | 20855 ft | 373 kts | 251° |
| 2026-05-06 09:07 | 56.02547 | 91.41588 | 21192 ft | 375 kts | 251° |
| 2026-05-06 09:08 | 56.01237 | 91.35806 | 21901 ft | 379 kts | 251° |
| 2026-05-06 09:08 | 56.00564 | 91.32846 | 22279 ft | 380 kts | 251° |
| 2026-05-06 09:08 | 55.99575 | 91.28498 | 22814 ft | 383 kts | 252° |
| 2026-05-06 09:08 | 55.98843 | 91.23941 | 23307 ft | 381 kts | 265° |
| 2026-05-06 09:09 | 55.98900 | 91.19201 | 23760 ft | 381 kts | 278° |
| 2026-05-06 09:09 | 55.99405 | 91.14571 | 24172 ft | 383 kts | 284° |
| 2026-05-06 09:09 | 56.00128 | 91.10016 | 24648 ft | 385 kts | 286° |
| 2026-05-06 09:09 | 56.00946 | 91.05440 | 25163 ft | 386 kts | 287° |
| 2026-05-06 09:10 | 56.01765 | 91.00906 | 25641 ft | 388 kts | 286° |
| 2026-05-06 09:10 | 56.02577 | 90.96274 | 26053 ft | 390 kts | 285° |
| 2026-05-06 09:10 | 56.03359 | 90.91602 | 26442 ft | 391 kts | 285° |
| 2026-05-06 09:10 | 56.04107 | 90.86956 | 26811 ft | 393 kts | 284° |
| 2026-05-06 09:11 | 56.04847 | 90.82240 | 27254 ft | 393 kts | 284° |
| 2026-05-06 09:11 | 56.05576 | 90.77519 | 27672 ft | 393 kts | 284° |
| 2026-05-06 09:11 | 56.06292 | 90.72846 | 28029 ft | 394 kts | 284° |
| 2026-05-06 09:11 | 56.07016 | 90.68101 | 28479 ft | 393 kts | 284° |
| 2026-05-06 09:12 | 56.07738 | 90.63369 | 29003 ft | 390 kts | 284° |
| 2026-05-06 09:12 | 56.08452 | 90.58682 | 29511 ft | 387 kts | 284° |
| 2026-05-06 09:12 | 56.09152 | 90.54078 | 29921 ft | 386 kts | 283° |
| 2026-05-06 09:12 | 56.09856 | 90.49439 | 30187 ft | 388 kts | 283° |
| 2026-05-06 09:13 | 56.10566 | 90.44749 | 30534 ft | 388 kts | 283° |
| 2026-05-06 09:13 | 56.11264 | 90.40124 | 30901 ft | 387 kts | 283° |
| 2026-05-06 09:13 | 56.11968 | 90.35452 | 31231 ft | 386 kts | 283° |
| 2026-05-06 09:13 | 56.12669 | 90.30781 | 31536 ft | 386 kts | 284° |
| 2026-05-06 09:14 | 56.13357 | 90.26186 | 31831 ft | 385 kts | 284° |
| 2026-05-06 09:14 | 56.14052 | 90.21537 | 32108 ft | 385 kts | 284° |
| 2026-05-06 09:14 | 56.14743 | 90.16889 | 32432 ft | 384 kts | 284° |
| 2026-05-06 09:14 | 56.15426 | 90.12294 | 32721 ft | 383 kts | 284° |
| 2026-05-06 09:15 | 56.16111 | 90.07666 | 32997 ft | 383 kts | 284° |
| 2026-05-06 09:15 | 56.16796 | 90.03021 | 33275 ft | 382 kts | 284° |
| 2026-05-06 09:15 | 56.17467 | 89.98460 | 33546 ft | 382 kts | 284° |
| 2026-05-06 09:15 | 56.18148 | 89.93823 | 33779 ft | 382 kts | 284° |
| 2026-05-06 09:16 | 56.18817 | 89.89254 | 34015 ft | 382 kts | 283° |
| 2026-05-06 09:16 | 56.19492 | 89.84625 | 34204 ft | 382 kts | 283° |
| 2026-05-06 09:16 | 56.20166 | 89.79990 | 34355 ft | 383 kts | 283° |
| 2026-05-06 09:16 | 56.20831 | 89.75400 | 34503 ft | 383 kts | 283° |
| 2026-05-06 09:17 | 56.21507 | 89.70725 | 34659 ft | 384 kts | 283° |
| 2026-05-06 09:17 | 56.22171 | 89.66120 | 34812 ft | 384 kts | 283° |
| 2026-05-06 09:17 | 56.22843 | 89.61444 | 34958 ft | 385 kts | 283° |
| 2026-05-06 09:17 | 56.23515 | 89.56754 | 35107 ft | 386 kts | 283° |
| 2026-05-06 09:18 | 56.24181 | 89.52099 | 35238 ft | 386 kts | 283° |
| 2026-05-06 09:18 | 56.24851 | 89.47397 | 35386 ft | 387 kts | 283° |
| 2026-05-06 09:18 | 56.25510 | 89.42757 | 35541 ft | 387 kts | 283° |
| 2026-05-06 09:18 | 56.26178 | 89.38044 | 35667 ft | 388 kts | 283° |
| 2026-05-06 09:19 | 56.26843 | 89.33330 | 35802 ft | 388 kts | 283° |
| 2026-05-06 09:19 | 56.27509 | 89.28604 | 35926 ft | 389 kts | 283° |
| 2026-05-06 09:19 | 56.28165 | 89.23928 | 36071 ft | 389 kts | 283° |
| 2026-05-06 09:19 | 56.28823 | 89.19227 | 36188 ft | 390 kts | 283° |
| 2026-05-06 09:20 | 56.29489 | 89.14456 | 36308 ft | 390 kts | 283° |
| 2026-05-06 09:20 | 56.30143 | 89.09755 | 36429 ft | 390 kts | 283° |
| 2026-05-06 09:20 | 56.30805 | 89.04977 | 36552 ft | 391 kts | 283° |
| 2026-05-06 09:20 | 56.31458 | 89.00256 | 36653 ft | 392 kts | 283° |
| 2026-05-06 09:21 | 56.32122 | 88.95432 | 36735 ft | 393 kts | 283° |
| 2026-05-06 09:21 | 56.33732 | 88.86027 | 36907 ft | 395 kts | 288° |
| 2026-05-06 09:22 | 56.35660 | 88.76719 | 37022 ft | 398 kts | 289° |
| 2026-05-06 09:22 | 56.37648 | 88.67395 | 37223 ft | 400 kts | 289° |
| 2026-05-06 09:22 | 56.38652 | 88.62681 | 37349 ft | 401 kts | 289° |
| 2026-05-06 09:23 | 56.39639 | 88.58032 | 37402 ft | 402 kts | 289° |
| 2026-05-06 09:23 | 56.41641 | 88.48535 | 37584 ft | 404 kts | 289° |
| 2026-05-06 09:24 | 56.43632 | 88.39032 | 37710 ft | 406 kts | 289° |
| 2026-05-06 09:24 | 56.45628 | 88.29448 | 37843 ft | 407 kts | 289° |
| 2026-05-06 09:25 | 56.47628 | 88.19804 | 37891 ft | 410 kts | 288° |
| 2026-05-06 09:25 | 56.49629 | 88.10105 | 37933 ft | 412 kts | 288° |
| 2026-05-06 09:26 | 56.51624 | 88.00394 | 37928 ft | 411 kts | 288° |
| 2026-05-06 09:26 | 56.53603 | 87.90713 | 37925 ft | 411 kts | 288° |
| 2026-05-06 09:27 | 56.55575 | 87.81017 | 37927 ft | 411 kts | 288° |
| 2026-05-06 09:27 | 56.57547 | 87.71270 | 37925 ft | 411 kts | 288° |
| 2026-05-06 09:28 | 56.59511 | 87.61518 | 37915 ft | 411 kts | 288° |
| 2026-05-06 09:28 | 56.61466 | 87.51766 | 37918 ft | 412 kts | 288° |
| 2026-05-06 09:29 | 56.63411 | 87.42013 | 37918 ft | 412 kts | 288° |
| 2026-05-06 09:29 | 56.65359 | 87.32195 | 37913 ft | 412 kts | 288° |
| 2026-05-06 09:30 | 56.67284 | 87.22445 | 37916 ft | 411 kts | 288° |
| 2026-05-06 09:30 | 56.69206 | 87.12661 | 37912 ft | 411 kts | 288° |
| 2026-05-06 09:31 | 56.71134 | 87.02795 | 37916 ft | 413 kts | 287° |
| 2026-05-06 09:31 | 56.73057 | 86.92907 | 37911 ft | 417 kts | 287° |
| 2026-05-06 09:32 | 56.74990 | 86.82914 | 37915 ft | 421 kts | 287° |
| 2026-05-06 09:32 | 56.76945 | 86.72754 | 37907 ft | 425 kts | 287° |
| 2026-05-06 09:33 | 56.78885 | 86.62629 | 37905 ft | 424 kts | 287° |
| 2026-05-06 09:33 | 56.80816 | 86.52496 | 37906 ft | 424 kts | 287° |
| 2026-05-06 09:34 | 56.82745 | 86.42312 | 37902 ft | 425 kts | 287° |
| 2026-05-06 09:34 | 56.84669 | 86.32099 | 37901 ft | 426 kts | 287° |
| 2026-05-06 09:35 | 56.86599 | 86.21806 | 37901 ft | 426 kts | 287° |
| 2026-05-06 09:35 | 56.88508 | 86.11566 | 37898 ft | 426 kts | 286° |
| 2026-05-06 09:36 | 56.90411 | 86.01304 | 37899 ft | 426 kts | 286° |
| 2026-05-06 09:36 | 56.92306 | 85.91030 | 37894 ft | 427 kts | 286° |
| 2026-05-06 09:37 | 56.94191 | 85.80750 | 37897 ft | 428 kts | 286° |
| 2026-05-06 09:37 | 56.96088 | 85.70353 | 37892 ft | 429 kts | 286° |
| 2026-05-06 09:38 | 56.97961 | 85.60028 | 37893 ft | 428 kts | 286° |
| 2026-05-06 09:38 | 56.99829 | 85.49674 | 37895 ft | 428 kts | 286° |
| 2026-05-06 09:39 | 57.01690 | 85.39304 | 37892 ft | 428 kts | 286° |
| 2026-05-06 09:39 | 57.03544 | 85.28914 | 37890 ft | 429 kts | 285° |
| 2026-05-06 09:40 | 57.05402 | 85.18434 | 37886 ft | 430 kts | 285° |
| 2026-05-06 09:40 | 57.08166 | 85.02744 | 37887 ft | 431 kts | 285° |
| 2026-05-06 09:41 | 57.10000 | 84.92258 | 37890 ft | 431 kts | 285° |
| 2026-05-06 09:41 | 57.11829 | 84.81742 | 37890 ft | 431 kts | 285° |
| 2026-05-06 09:42 | 57.13601 | 84.71242 | 37884 ft | 431 kts | 283° |
| 2026-05-06 09:42 | 57.15129 | 84.60600 | 37889 ft | 431 kts | 282° |
| 2026-05-06 09:43 | 57.16579 | 84.49875 | 37884 ft | 431 kts | 282° |
| 2026-05-06 09:43 | 57.18027 | 84.39194 | 37884 ft | 431 kts | 282° |
| 2026-05-06 09:44 | 57.19499 | 84.28408 | 37886 ft | 431 kts | 282° |
| 2026-05-06 09:44 | 57.20958 | 84.17700 | 37880 ft | 431 kts | 282° |
| 2026-05-06 09:45 | 57.22412 | 84.06962 | 37881 ft | 431 kts | 282° |
| 2026-05-06 09:45 | 57.23857 | 83.96202 | 37903 ft | 432 kts | 282° |
| 2026-05-06 09:46 | 57.25293 | 83.85426 | 37886 ft | 434 kts | 282° |
| 2026-05-06 09:46 | 57.26720 | 83.74636 | 37887 ft | 434 kts | 282° |
| 2026-05-06 09:47 | 57.28141 | 83.63814 | 37886 ft | 434 kts | 282° |
| 2026-05-06 09:47 | 57.29554 | 83.52985 | 37881 ft | 434 kts | 282° |
| 2026-05-06 09:48 | 57.30967 | 83.42072 | 37880 ft | 434 kts | 282° |
| 2026-05-06 09:48 | 57.32361 | 83.31224 | 37883 ft | 434 kts | 282° |
| 2026-05-06 09:49 | 57.33741 | 83.20400 | 37880 ft | 434 kts | 282° |
| 2026-05-06 09:49 | 57.35114 | 83.09555 | 37879 ft | 434 kts | 282° |
| 2026-05-06 09:50 | 57.36485 | 82.98634 | 37877 ft | 434 kts | 282° |
| 2026-05-06 09:50 | 57.37837 | 82.87791 | 37878 ft | 434 kts | 281° |
| 2026-05-06 09:51 | 57.39190 | 82.76851 | 37884 ft | 434 kts | 282° |
| 2026-05-06 09:51 | 57.40523 | 82.65990 | 37886 ft | 435 kts | 281° |
| 2026-05-06 09:52 | 57.41853 | 82.55071 | 37881 ft | 435 kts | 281° |
| 2026-05-06 09:52 | 57.43182 | 82.44079 | 37896 ft | 436 kts | 281° |
| 2026-05-06 09:53 | 57.44495 | 82.33124 | 37881 ft | 436 kts | 281° |
| 2026-05-06 09:53 | 57.45807 | 82.22091 | 37882 ft | 437 kts | 281° |
| 2026-05-06 09:54 | 57.47103 | 82.11110 | 37886 ft | 437 kts | 281° |
| 2026-05-06 09:54 | 57.48396 | 82.00058 | 37888 ft | 437 kts | 281° |
| 2026-05-06 09:55 | 57.49673 | 81.89058 | 37886 ft | 437 kts | 281° |
| 2026-05-06 09:55 | 57.50948 | 81.77976 | 37886 ft | 437 kts | 281° |
| 2026-05-06 09:56 | 57.52203 | 81.66982 | 37887 ft | 437 kts | 281° |
| 2026-05-06 09:56 | 57.53459 | 81.55894 | 37885 ft | 437 kts | 281° |
| 2026-05-06 09:57 | 57.54698 | 81.44855 | 37893 ft | 438 kts | 281° |
| 2026-05-06 09:57 | 57.55931 | 81.33773 | 37890 ft | 438 kts | 281° |
| 2026-05-06 09:58 | 57.56956 | 81.24491 | 37895 ft | 438 kts | 281° |
| 2026-05-06 09:58 | 57.58171 | 81.13411 | 37892 ft | 438 kts | 281° |
| 2026-05-06 09:59 | 57.59381 | 81.02268 | 37892 ft | 438 kts | 281° |
| 2026-05-06 09:59 | 57.60573 | 80.91188 | 37897 ft | 438 kts | 281° |
| 2026-05-06 10:00 | 57.61763 | 80.80032 | 37899 ft | 439 kts | 281° |
| 2026-05-06 10:00 | 57.62948 | 80.68829 | 37898 ft | 439 kts | 281° |
| 2026-05-06 10:01 | 57.64116 | 80.57688 | 37894 ft | 439 kts | 281° |
| 2026-05-06 10:01 | 57.65277 | 80.46546 | 37899 ft | 439 kts | 281° |
| 2026-05-06 10:02 | 57.66441 | 80.35329 | 37896 ft | 439 kts | 281° |
| 2026-05-06 10:02 | 57.67702 | 80.23098 | 37896 ft | 439 kts | 281° |
| 2026-05-06 10:03 | 57.68847 | 80.11868 | 37896 ft | 438 kts | 281° |
| 2026-05-06 10:03 | 57.69978 | 80.00678 | 37896 ft | 438 kts | 280° |
| 2026-05-06 10:04 | 57.71095 | 79.89514 | 37898 ft | 438 kts | 280° |
| 2026-05-06 10:04 | 57.72204 | 79.78324 | 37898 ft | 438 kts | 280° |
| 2026-05-06 10:05 | 57.73258 | 79.67084 | 37904 ft | 438 kts | 279° |
| 2026-05-06 10:05 | 57.74132 | 79.55830 | 37902 ft | 438 kts | 278° |
| 2026-05-06 10:06 | 57.74963 | 79.44482 | 37909 ft | 438 kts | 278° |
| 2026-05-06 10:06 | 57.75792 | 79.33198 | 37913 ft | 439 kts | 278° |
| 2026-05-06 10:07 | 57.76623 | 79.21915 | 37909 ft | 439 kts | 278° |
| 2026-05-06 10:07 | 57.77455 | 79.10539 | 37907 ft | 439 kts | 278° |
| 2026-05-06 10:08 | 57.78273 | 78.99207 | 37910 ft | 439 kts | 277° |
| 2026-05-06 10:08 | 57.79080 | 78.87887 | 37913 ft | 438 kts | 277° |
| 2026-05-06 10:09 | 57.79874 | 78.76586 | 37914 ft | 438 kts | 277° |
| 2026-05-06 10:09 | 57.80658 | 78.65281 | 37914 ft | 438 kts | 277° |
| 2026-05-06 10:10 | 57.81435 | 78.53920 | 37916 ft | 438 kts | 277° |
| 2026-05-06 10:10 | 57.82202 | 78.42564 | 37920 ft | 438 kts | 277° |
| 2026-05-06 10:11 | 57.82954 | 78.31271 | 37919 ft | 438 kts | 277° |
| 2026-05-06 10:11 | 57.83702 | 78.19885 | 37921 ft | 437 kts | 277° |
| 2026-05-06 10:12 | 57.84432 | 78.08607 | 37922 ft | 437 kts | 277° |
| 2026-05-06 10:12 | 57.85154 | 77.97302 | 37920 ft | 437 kts | 277° |
| 2026-05-06 10:13 | 57.85870 | 77.85919 | 37920 ft | 437 kts | 277° |
| 2026-05-06 10:13 | 57.86571 | 77.74617 | 37919 ft | 437 kts | 277° |
| 2026-05-06 10:14 | 57.87263 | 77.63285 | 37921 ft | 437 kts | 276° |
| 2026-05-06 10:14 | 57.87950 | 77.51874 | 37926 ft | 437 kts | 276° |
| 2026-05-06 10:15 | 57.88620 | 77.40560 | 37923 ft | 437 kts | 276° |
| 2026-05-06 10:15 | 57.89282 | 77.29217 | 37923 ft | 437 kts | 276° |
| 2026-05-06 10:16 | 57.89937 | 77.17823 | 37922 ft | 437 kts | 276° |
| 2026-05-06 10:16 | 57.90578 | 77.06471 | 37922 ft | 437 kts | 276° |
| 2026-05-06 10:17 | 57.91210 | 76.95115 | 37925 ft | 437 kts | 276° |
| 2026-05-06 10:17 | 57.91829 | 76.83791 | 37922 ft | 437 kts | 276° |
| 2026-05-06 10:18 | 57.92443 | 76.72371 | 37922 ft | 437 kts | 276° |
| 2026-05-06 10:18 | 57.93043 | 76.61026 | 37928 ft | 437 kts | 276° |
| 2026-05-06 10:19 | 57.93635 | 76.49653 | 37925 ft | 437 kts | 276° |
| 2026-05-06 10:19 | 57.94215 | 76.38283 | 37930 ft | 437 kts | 276° |
| 2026-05-06 10:20 | 57.94693 | 76.28768 | 37930 ft | 436 kts | 276° |
| 2026-05-06 10:20 | 57.95346 | 76.15534 | 37933 ft | 436 kts | 275° |
| 2026-05-06 10:21 | 57.95806 | 76.06030 | 37935 ft | 436 kts | 275° |
| 2026-05-06 10:21 | 57.96347 | 75.94656 | 37930 ft | 436 kts | 275° |
| 2026-05-06 10:22 | 57.96880 | 75.83244 | 37951 ft | 436 kts | 275° |
| 2026-05-06 10:22 | 57.97427 | 75.71908 | 37940 ft | 436 kts | 276° |
| 2026-05-06 10:23 | 57.98007 | 75.60507 | 37941 ft | 435 kts | 276° |
| 2026-05-06 10:23 | 57.98577 | 75.49185 | 37936 ft | 435 kts | 276° |
| 2026-05-06 10:24 | 57.99134 | 75.37844 | 37936 ft | 435 kts | 275° |
| 2026-05-06 10:24 | 57.99678 | 75.26510 | 37938 ft | 435 kts | 275° |
| 2026-05-06 10:25 | 58.00215 | 75.15085 | 37927 ft | 435 kts | 275° |
| 2026-05-06 10:25 | 58.00736 | 75.03773 | 37938 ft | 435 kts | 275° |
| 2026-05-06 10:26 | 58.01248 | 74.92445 | 37941 ft | 435 kts | 275° |
| 2026-05-06 10:26 | 58.01753 | 74.81042 | 37944 ft | 435 kts | 275° |
| 2026-05-06 10:27 | 58.02245 | 74.69702 | 37944 ft | 435 kts | 275° |
| 2026-05-06 10:27 | 58.02726 | 74.58376 | 37939 ft | 435 kts | 275° |
| 2026-05-06 10:28 | 58.03200 | 74.46990 | 37944 ft | 434 kts | 275° |
| 2026-05-06 10:28 | 58.03660 | 74.35668 | 37944 ft | 434 kts | 275° |
| 2026-05-06 10:29 | 58.04114 | 74.24272 | 37944 ft | 434 kts | 274° |
| 2026-05-06 10:29 | 58.04555 | 74.12920 | 37959 ft | 434 kts | 274° |
| 2026-05-06 10:30 | 58.04987 | 74.01558 | 37943 ft | 434 kts | 274° |
| 2026-05-06 10:30 | 58.05409 | 73.90179 | 37942 ft | 434 kts | 274° |
| 2026-05-06 10:31 | 58.05819 | 73.78835 | 37946 ft | 434 kts | 274° |
| 2026-05-06 10:31 | 58.06223 | 73.67413 | 37946 ft | 434 kts | 274° |
| 2026-05-06 10:32 | 58.06613 | 73.56058 | 37938 ft | 434 kts | 274° |
| 2026-05-06 10:32 | 58.06994 | 73.44687 | 37938 ft | 434 kts | 274° |
| 2026-05-06 10:33 | 58.07364 | 73.33338 | 37947 ft | 434 kts | 274° |
| 2026-05-06 10:33 | 58.07726 | 73.21922 | 37946 ft | 434 kts | 274° |
| 2026-05-06 10:34 | 58.08075 | 73.10577 | 37941 ft | 433 kts | 273° |
| 2026-05-06 10:34 | 58.08415 | 72.99226 | 37943 ft | 433 kts | 273° |
| 2026-05-06 10:35 | 58.08744 | 72.87865 | 37943 ft | 433 kts | 273° |
| 2026-05-06 10:35 | 58.09065 | 72.76460 | 37945 ft | 433 kts | 273° |
| 2026-05-06 10:36 | 58.09374 | 72.65115 | 37940 ft | 433 kts | 273° |
| 2026-05-06 10:36 | 58.09675 | 72.53724 | 37927 ft | 433 kts | 273° |
| 2026-05-06 10:37 | 58.09977 | 72.42375 | 37935 ft | 433 kts | 273° |
| 2026-05-06 10:37 | 58.10274 | 72.31028 | 37936 ft | 433 kts | 273° |
| 2026-05-06 10:38 | 58.10561 | 72.19700 | 37938 ft | 433 kts | 273° |
| 2026-05-06 10:38 | 58.10838 | 72.08299 | 37939 ft | 433 kts | 272° |
| 2026-05-06 10:39 | 58.11103 | 71.96947 | 37928 ft | 433 kts | 272° |
| 2026-05-06 10:39 | 58.11358 | 71.85608 | 37925 ft | 433 kts | 272° |
| 2026-05-06 10:40 | 58.11604 | 71.74191 | 37930 ft | 433 kts | 272° |
| 2026-05-06 10:40 | 58.11839 | 71.62848 | 37930 ft | 433 kts | 272° |
| 2026-05-06 10:41 | 58.12064 | 71.51495 | 37930 ft | 433 kts | 272° |
| 2026-05-06 10:41 | 58.12279 | 71.40126 | 37927 ft | 433 kts | 272° |
| 2026-05-06 10:42 | 58.12484 | 71.28749 | 37922 ft | 433 kts | 272° |
| 2026-05-06 10:42 | 58.12678 | 71.17408 | 37919 ft | 432 kts | 272° |
| 2026-05-06 10:43 | 58.12862 | 71.06051 | 37919 ft | 432 kts | 271° |
| 2026-05-06 10:44 | 58.13121 | 70.88936 | 37919 ft | 432 kts | 271° |
| 2026-05-06 10:44 | 58.13279 | 70.77654 | 37919 ft | 432 kts | 271° |
| 2026-05-06 10:45 | 58.13428 | 70.66256 | 37921 ft | 432 kts | 271° |
| 2026-05-06 10:45 | 58.13567 | 70.54911 | 37914 ft | 432 kts | 271° |
| 2026-05-06 10:46 | 58.13696 | 70.43509 | 37911 ft | 432 kts | 271° |
| 2026-05-06 10:46 | 58.13815 | 70.32145 | 37912 ft | 432 kts | 271° |
| 2026-05-06 10:47 | 58.13924 | 70.20784 | 37912 ft | 432 kts | 271° |
| 2026-05-06 10:47 | 58.14022 | 70.09416 | 37909 ft | 432 kts | 271° |
| 2026-05-06 10:48 | 58.14110 | 69.98068 | 37899 ft | 432 kts | 271° |
| 2026-05-06 10:48 | 58.14189 | 69.86642 | 37893 ft | 432 kts | 271° |
| 2026-05-06 10:49 | 58.14257 | 69.75348 | 37895 ft | 432 kts | 270° |
| 2026-05-06 10:49 | 58.14315 | 69.63918 | 37898 ft | 432 kts | 270° |
| 2026-05-06 10:50 | 58.14363 | 69.52575 | 37900 ft | 432 kts | 270° |
| 2026-05-06 10:50 | 58.14401 | 69.41233 | 37899 ft | 432 kts | 270° |
| 2026-05-06 10:51 | 58.14428 | 69.29884 | 37885 ft | 432 kts | 270° |
| 2026-05-06 10:51 | 58.14446 | 69.18522 | 37886 ft | 432 kts | 270° |
| 2026-05-06 10:52 | 58.14454 | 69.07163 | 37881 ft | 432 kts | 270° |
| 2026-05-06 10:52 | 58.14452 | 68.95801 | 37902 ft | 432 kts | 270° |
| 2026-05-06 10:53 | 58.14440 | 68.84394 | 37879 ft | 432 kts | 270° |
| 2026-05-06 10:53 | 58.14418 | 68.73049 | 37881 ft | 432 kts | 270° |
| 2026-05-06 10:54 | 58.14387 | 68.61716 | 37876 ft | 432 kts | 270° |
| 2026-05-06 10:54 | 58.14345 | 68.50322 | 37875 ft | 432 kts | 269° |
| 2026-05-06 10:55 | 58.14293 | 68.38963 | 37877 ft | 431 kts | 269° |
| 2026-05-06 10:55 | 58.14154 | 68.27641 | 37869 ft | 431 kts | 265° |
| 2026-05-06 10:56 | 58.13572 | 68.16359 | 37868 ft | 432 kts | 264° |
| 2026-05-06 10:56 | 58.12891 | 68.05082 | 37872 ft | 432 kts | 264° |
| 2026-05-06 10:57 | 58.12183 | 67.93816 | 37865 ft | 432 kts | 263° |
| 2026-05-06 10:57 | 58.11466 | 67.82485 | 37868 ft | 432 kts | 263° |
| 2026-05-06 10:58 | 58.10748 | 67.71226 | 37860 ft | 432 kts | 263° |
| 2026-05-06 10:58 | 58.10023 | 67.59968 | 37859 ft | 432 kts | 263° |
| 2026-05-06 10:59 | 58.09287 | 67.48728 | 37857 ft | 432 kts | 263° |
| 2026-05-06 10:59 | 58.08535 | 67.37417 | 37859 ft | 432 kts | 263° |
| 2026-05-06 11:00 | 58.07777 | 67.26178 | 37860 ft | 432 kts | 263° |
| 2026-05-06 11:00 | 58.07007 | 67.14909 | 37862 ft | 432 kts | 263° |
| 2026-05-06 11:01 | 58.06232 | 67.03715 | 37855 ft | 432 kts | 263° |
| 2026-05-06 11:01 | 58.05440 | 66.92423 | 37854 ft | 432 kts | 263° |
| 2026-05-06 11:02 | 58.04647 | 66.81163 | 37856 ft | 432 kts | 263° |
| 2026-05-06 11:02 | 58.03863 | 66.69949 | 37847 ft | 432 kts | 262° |
| 2026-05-06 11:03 | 58.03074 | 66.58763 | 37855 ft | 431 kts | 262° |
| 2026-05-06 11:03 | 58.02273 | 66.47577 | 37854 ft | 431 kts | 262° |
| 2026-05-06 11:04 | 58.01455 | 66.36323 | 37852 ft | 431 kts | 262° |
| 2026-05-06 11:04 | 58.00634 | 66.25163 | 37854 ft | 430 kts | 262° |
| 2026-05-06 11:05 | 57.99804 | 66.14008 | 37855 ft | 430 kts | 262° |
| 2026-05-06 11:05 | 57.98958 | 66.02794 | 37853 ft | 431 kts | 262° |
| 2026-05-06 11:06 | 57.98109 | 65.91666 | 37855 ft | 430 kts | 262° |
| 2026-05-06 11:06 | 57.97234 | 65.80533 | 37853 ft | 430 kts | 261° |
| 2026-05-06 11:07 | 57.96345 | 65.69417 | 37852 ft | 430 kts | 261° |
| 2026-05-06 11:07 | 57.95445 | 65.58278 | 37853 ft | 430 kts | 261° |
| 2026-05-06 11:08 | 57.94535 | 65.47132 | 37855 ft | 430 kts | 261° |
| 2026-05-06 11:08 | 57.93613 | 65.35957 | 37853 ft | 431 kts | 261° |
| 2026-05-06 11:09 | 57.92686 | 65.24847 | 37856 ft | 430 kts | 261° |
| 2026-05-06 11:09 | 57.91750 | 65.13741 | 37853 ft | 430 kts | 261° |
| 2026-05-06 11:10 | 57.90803 | 65.02632 | 37852 ft | 430 kts | 261° |
| 2026-05-06 11:10 | 57.90005 | 64.93372 | 37853 ft | 430 kts | 261° |
| 2026-05-06 11:11 | 57.89041 | 64.82274 | 37834 ft | 430 kts | 261° |
| 2026-05-06 11:11 | 57.88063 | 64.71144 | 37845 ft | 430 kts | 260° |
| 2026-05-06 11:12 | 57.87080 | 64.60080 | 37845 ft | 430 kts | 260° |
| 2026-05-06 11:12 | 57.86090 | 64.49039 | 37845 ft | 430 kts | 260° |
| 2026-05-06 11:13 | 57.85084 | 64.37935 | 37847 ft | 430 kts | 260° |
| 2026-05-06 11:13 | 57.84073 | 64.26890 | 37845 ft | 430 kts | 260° |
| 2026-05-06 11:14 | 57.83051 | 64.15829 | 37845 ft | 429 kts | 260° |
| 2026-05-06 11:14 | 57.82154 | 64.04772 | 37845 ft | 429 kts | 262° |
| 2026-05-06 11:15 | 57.81358 | 63.93702 | 37846 ft | 429 kts | 262° |
| 2026-05-06 11:15 | 57.80551 | 63.82550 | 37837 ft | 429 kts | 262° |
| 2026-05-06 11:16 | 57.79727 | 63.71510 | 37837 ft | 429 kts | 261° |
| 2026-05-06 11:16 | 57.78884 | 63.60455 | 37830 ft | 429 kts | 261° |
| 2026-05-06 11:17 | 57.78026 | 63.49364 | 37840 ft | 429 kts | 261° |
| 2026-05-06 11:17 | 57.77160 | 63.38295 | 37837 ft | 430 kts | 261° |
| 2026-05-06 11:18 | 57.76283 | 63.27202 | 37835 ft | 429 kts | 261° |
| 2026-05-06 11:18 | 57.75399 | 63.16153 | 37837 ft | 429 kts | 261° |
| 2026-05-06 11:19 | 57.74506 | 63.05121 | 37837 ft | 429 kts | 261° |
| 2026-05-06 11:19 | 57.73604 | 62.94097 | 37835 ft | 430 kts | 261° |
| 2026-05-06 11:20 | 57.72690 | 62.83040 | 37836 ft | 430 kts | 261° |
| 2026-05-06 11:20 | 57.71763 | 62.71944 | 37837 ft | 430 kts | 261° |
| 2026-05-06 11:21 | 57.70837 | 62.60929 | 37837 ft | 430 kts | 261° |
| 2026-05-06 11:21 | 57.69899 | 62.49878 | 37837 ft | 430 kts | 260° |
| 2026-05-06 11:22 | 57.68954 | 62.38861 | 37837 ft | 430 kts | 260° |
| 2026-05-06 11:22 | 57.67992 | 62.27772 | 37840 ft | 430 kts | 260° |
| 2026-05-06 11:23 | 57.67028 | 62.16780 | 37837 ft | 430 kts | 260° |
| 2026-05-06 11:23 | 57.66052 | 62.05763 | 37842 ft | 430 kts | 260° |
| 2026-05-06 11:24 | 57.65069 | 61.94770 | 37843 ft | 430 kts | 260° |
| 2026-05-06 11:24 | 57.64070 | 61.83719 | 37846 ft | 430 kts | 260° |
| 2026-05-06 11:25 | 57.63064 | 61.72736 | 37837 ft | 430 kts | 259° |